Time;durP1;ratioP1;P1;durP2;ratioP2;P2;SDS_P1;SDS_P2;PMS_P1;PMS_P2;Temp;Humidity;BMP_temperature;BMP_pressure;BME280_temperature;BME280_humidity;BME280_pressure;Samples;Min_cycle;Max_cycle;Signal;HPM_P1;HPM_P2
2022/11/22 00:02:23;;;;;;;5.10;3.03;;;;;;;6.37;84.61;94296.41;5078890;28;20178;-76
2022/11/22 00:04:49;;;;;;;4.40;3.30;;;;;;;6.42;84.71;94299.22;5073787;28;20174;-75
2022/11/22 00:07:14;;;;;;;6.10;3.60;;;;;;;6.44;83.67;94292.78;5073908;28;20178;-76
2022/11/22 00:09:39;;;;;;;4.97;3.47;;;;;;;6.42;83.60;94289.56;5073929;28;20662;-76
2022/11/22 00:12:05;;;;;;;4.47;3.10;;;;;;;6.36;83.73;94287.75;5074058;28;20197;-75
2022/11/22 00:14:30;;;;;;;5.00;3.50;;;;;;;6.37;83.81;94299.03;5074047;28;20259;-76
2022/11/22 00:16:56;;;;;;;7.17;3.37;;;;;;;6.36;84.12;94303.44;5074096;28;20242;-76
2022/11/22 00:19:21;;;;;;;5.73;3.70;;;;;;;6.39;84.16;94302.25;5055935;28;20181;-76
2022/11/22 00:21:46;;;;;;;4.53;3.03;;;;;;;6.39;84.37;94304.88;5073988;28;20518;-75
2022/11/22 00:24:12;;;;;;;4.13;3.30;;;;;;;6.43;84.26;94308.69;5073844;28;20185;-77
2022/11/22 00:26:38;;;;;;;3.63;3.07;;;;;;;6.45;83.96;94311.91;5092811;28;20173;-77
2022/11/22 00:29:03;;;;;;;2.40;2.20;;;;;;;6.42;84.34;94307.88;5094615;28;20181;-77
2022/11/22 00:31:29;;;;;;;3.07;2.57;;;;;;;6.38;83.69;94305.88;5094218;28;20177;-77
2022/11/22 00:33:54;;;;;;;3.20;2.33;;;;;;;6.34;83.90;94299.41;5081818;28;20174;-74
2022/11/22 00:36:19;;;;;;;3.23;2.60;;;;;;;6.31;83.99;94300.59;5073557;28;20675;-76
2022/11/22 00:38:45;;;;;;;2.20;2.00;;;;;;;6.32;84.56;94304.03;5055216;28;20210;-76
2022/11/22 00:41:10;;;;;;;2.97;2.10;;;;;;;6.32;84.62;94299.59;5073500;28;20179;-76
2022/11/22 00:43:35;;;;;;;2.10;1.73;;;;;;;6.31;85.07;94299.81;5073625;28;20185;-76
2022/11/22 00:46:01;;;;;;;3.30;2.70;;;;;;;6.33;84.92;94300.41;5076607;28;20291;-75
2022/11/22 00:48:26;;;;;;;6.70;3.70;;;;;;;6.32;84.91;94307.44;5093882;28;20174;-75
2022/11/22 00:50:52;;;;;;;4.72;3.50;;;;;;;6.29;84.52;94299.22;5092434;28;20881;-77
2022/11/22 00:53:17;;;;;;;4.67;3.20;;;;;;;6.27;84.70;94299.41;5093597;28;20177;-75
2022/11/22 00:55:44;;;;;;;3.50;2.77;;;;;;;6.27;84.60;94296.78;5093404;28;20190;-76
2022/11/22 00:58:10;;;;;;;3.75;3.17;;;;;;;6.26;84.54;94289.16;5092645;28;20415;-76
2022/11/22 01:00:35;;;;;;;3.27;2.70;;;;;;;6.28;84.64;94287.94;5093308;28;20170;-75
2022/11/22 01:03:00;;;;;;;4.37;3.10;;;;;;;6.24;85.04;94286.72;5093368;28;20256;-76
2022/11/22 01:05:26;;;;;;;4.10;3.67;;;;;;;6.17;84.76;94278.06;5093306;28;20173;-76
2022/11/22 01:07:52;;;;;;;6.97;4.23;;;;;;;6.00;84.48;94261.16;5077101;28;20202;-76
2022/11/22 01:10:17;;;;;;;5.80;4.20;;;;;;;6.20;84.65;94288.13;5092747;28;20234;-75
2022/11/22 01:12:43;;;;;;;4.23;3.70;;;;;;;6.18;84.59;94284.09;5093251;28;20166;-76
2022/11/22 01:15:12;;;;;;;6.93;4.00;;;;;;;6.18;84.55;94295.38;5092657;28;20216;-76
2022/11/22 01:17:38;;;;;;;5.93;3.77;;;;;;;6.13;84.31;94286.50;5093256;28;20201;-76
2022/11/22 01:20:04;;;;;;;5.97;3.27;;;;;;;6.13;84.80;94292.53;5085423;28;20214;-76
2022/11/22 01:22:29;;;;;;;5.23;3.60;;;;;;;6.05;84.53;94266.59;5072867;28;20175;-76
2022/11/22 01:24:55;;;;;;;4.27;2.97;;;;;;;6.02;84.76;94274.81;5073014;28;20206;-76
2022/11/22 01:27:20;;;;;;;4.97;3.03;;;;;;;5.97;84.41;94291.06;5071749;28;20398;-75
2022/11/22 01:29:45;;;;;;;4.47;2.95;;;;;;;5.85;84.69;94290.00;5072119;28;20417;-75
2022/11/22 01:32:11;;;;;;;3.87;3.10;;;;;;;5.76;85.07;94285.16;5071312;28;20412;-75
2022/11/22 01:34:36;;;;;;;3.60;3.00;;;;;;;5.72;85.23;94278.69;5071518;28;20997;-75
2022/11/22 01:37:02;;;;;;;3.33;3.03;;;;;;;5.49;85.45;94265.97;5071727;28;20501;-75
2022/11/22 01:39:28;;;;;;;3.10;2.80;;;;;;;5.47;85.08;94255.72;5072033;28;20784;-75
2022/11/22 01:41:53;;;;;;;3.27;2.97;;;;;;;5.51;85.83;94279.63;5071213;28;20493;-75
2022/11/22 01:44:28;;;;;;;3.73;3.03;;;;;;;5.49;85.69;94273.78;5072405;28;20171;-75
2022/11/22 01:47:10;;;;;;;3.25;2.80;;;;;;;5.46;85.60;94274.16;5064029;28;20410;-75
2022/11/22 01:49:50;;;;;;;4.38;3.35;;;;;;;5.37;86.20;94270.09;5070495;28;20820;-75
2022/11/22 01:52:23;;;;;;;6.37;3.70;;;;;;;5.44;85.96;94276.19;5072268;28;20269;-76
2022/11/22 01:55:02;;;;;;;4.37;2.93;;;;;;;5.42;85.56;94272.97;5071939;28;20297;-75
2022/11/22 01:57:32;;;;;;;4.60;2.90;;;;;;;5.30;85.30;94255.22;5071907;28;20170;-75
2022/11/22 02:00:02;;;;;;;3.47;2.80;;;;;;;5.21;85.55;94230.31;5071671;28;20255;-75
2022/11/22 02:02:27;;;;;;;3.20;2.67;;;;;;;5.30;85.85;94267.47;5071913;28;20174;-75
2022/11/22 02:04:56;;;;;;;5.80;3.17;;;;;;;5.23;85.99;94274.47;5071829;28;20674;-75
2022/11/22 02:07:26;;;;;;;5.27;3.20;;;;;;;5.26;86.09;94276.69;5076620;28;20174;-75
2022/11/22 02:09:52;;;;;;;7.30;4.07;;;;;;;5.22;86.09;94278.88;5074572;28;20171;-75
2022/11/22 02:12:22;;;;;;;7.50;4.33;;;;;;;5.18;86.50;94277.66;5071790;28;20170;-76
2022/11/22 02:14:48;;;;;;;7.30;4.17;;;;;;;5.21;86.72;94284.28;5071969;28;20202;-75
2022/11/22 02:17:13;;;;;;;7.60;4.00;;;;;;;5.24;86.59;94278.69;5053782;28;20239;-75
2022/11/22 02:19:44;;;;;;;5.93;3.70;;;;;;;5.24;86.43;94287.31;5071532;28;20656;-75
2022/11/22 02:22:24;;;;;;;5.37;4.00;;;;;;;5.20;86.72;94278.25;5071478;28;20184;-76
2022/11/22 02:25:02;;;;;;;6.63;4.20;;;;;;;5.18;87.34;94277.66;5071623;28;20622;-75
2022/11/22 02:27:28;;;;;;;7.57;3.90;;;;;;;5.20;87.61;94272.22;5070206;28;20174;-76
2022/11/22 02:29:53;;;;;;;5.57;3.17;;;;;;;5.21;88.00;94266.81;5085354;28;20179;-75
2022/11/22 02:32:19;;;;;;;4.60;3.10;;;;;;;5.16;87.69;94276.25;5092007;28;20207;-75
2022/11/22 02:34:47;;;;;;;6.00;3.60;;;;;;;5.13;87.45;94255.75;5091529;28;20229;-75
2022/11/22 02:37:16;;;;;;;5.47;3.03;;;;;;;5.14;87.50;94271.19;5091573;28;20166;-75
2022/11/22 02:39:45;;;;;;;3.70;2.87;;;;;;;5.12;87.70;94280.22;5091218;28;20226;-75
2022/11/22 02:42:11;;;;;;;9.37;5.43;;;;;;;5.09;87.21;94275.41;5091387;28;20671;-75
2022/11/22 02:44:38;;;;;;;8.60;5.28;;;;;;;5.04;87.04;94270.75;5091052;28;20443;-75
2022/11/22 02:47:04;;;;;;;8.57;4.40;;;;;;;4.90;87.03;94266.44;5076606;28;20627;-75
2022/11/22 02:49:29;;;;;;;4.17;3.37;;;;;;;4.91;87.42;94268.06;5070941;28;20261;-75
2022/11/22 02:51:54;;;;;;;6.60;3.47;;;;;;;4.81;87.65;94257.97;5070342;28;20410;-75
2022/11/22 02:54:20;;;;;;;4.73;3.60;;;;;;;4.79;87.91;94265.16;5071028;28;20452;-75
2022/11/22 02:56:45;;;;;;;11.88;4.18;;;;;;;4.74;88.45;94264.94;5089008;28;20408;-75
2022/11/22 02:59:11;;;;;;;6.87;4.03;;;;;;;4.76;88.00;94268.13;5090968;28;20197;-75
2022/11/22 03:01:37;;;;;;;6.13;3.97;;;;;;;4.74;87.66;94267.53;5073055;28;20182;-75
2022/11/22 03:04:02;;;;;;;9.15;5.57;;;;;;;4.66;87.57;94275.50;5070438;28;20501;-75
2022/11/22 03:06:28;;;;;;;8.03;4.80;;;;;;;4.39;87.63;94239.81;5070031;28;20412;-75
2022/11/22 03:08:54;;;;;;;9.37;5.17;;;;;;;4.46;88.15;94274.53;5090106;28;20578;-74
2022/11/22 03:11:19;;;;;;;10.53;4.80;;;;;;;4.41;88.25;94269.88;5090881;28;20169;-74
2022/11/22 03:13:45;;;;;;;9.07;5.70;;;;;;;4.36;88.45;94261.00;5090680;28;20170;-74
2022/11/22 03:16:10;;;;;;;8.97;5.20;;;;;;;4.29;88.80;94255.75;5072678;28;20193;-76
2022/11/22 03:18:36;;;;;;;6.80;4.70;;;;;;;4.20;88.77;94249.06;5091159;28;20166;-76
2022/11/22 03:21:03;;;;;;;5.60;4.27;;;;;;;4.24;88.48;94259.91;5071425;28;20178;-76
2022/11/22 03:23:29;;;;;;;6.77;4.67;;;;;;;4.18;88.72;94264.84;5070789;28;20178;-76
2022/11/22 03:25:54;;;;;;;8.83;4.83;;;;;;;4.13;88.66;94258.59;5070532;28;20655;-76
2022/11/22 03:28:19;;;;;;;7.30;4.50;;;;;;;4.03;89.11;94232.06;5070828;28;20166;-76
2022/11/22 03:30:45;;;;;;;12.23;8.53;;;;;;;4.12;89.59;94255.19;5070792;28;20608;-76
2022/11/22 03:33:10;;;;;;;11.10;7.23;;;;;;;4.08;89.25;94247.94;5070339;28;20189;-76
2022/11/22 03:35:36;;;;;;;9.87;7.13;;;;;;;4.09;89.42;94260.75;5070343;28;20273;-76
2022/11/22 03:38:02;;;;;;;10.23;6.93;;;;;;;4.13;89.54;94250.78;5089913;28;20252;-74
2022/11/22 03:40:27;;;;;;;9.90;7.00;;;;;;;4.08;89.19;94251.34;5097245;28;20213;-76
2022/11/22 03:42:53;;;;;;;10.33;7.17;;;;;;;4.05;89.08;94258.72;5097327;28;20170;-76
2022/11/22 03:45:18;;;;;;;8.77;6.50;;;;;;;4.04;89.18;94257.13;5088483;28;20681;-75
2022/11/22 03:47:43;;;;;;;9.13;6.20;;;;;;;4.05;88.90;94258.72;5097373;28;20193;-76
2022/11/22 03:50:09;;;;;;;7.57;5.90;;;;;;;4.03;89.08;94256.31;5094583;28;20181;-76
2022/11/22 03:52:35;;;;;;;8.47;5.80;;;;;;;4.02;88.90;94262.50;5076894;28;20534;-76
2022/11/22 03:55:01;;;;;;;12.60;4.93;;;;;;;3.85;88.71;94240.31;5077118;28;20309;-76
2022/11/22 03:57:26;;;;;;;9.70;5.30;;;;;;;3.97;88.72;94266.66;5076991;28;20297;-76
2022/11/22 03:59:51;;;;;;;6.63;4.77;;;;;;;3.89;88.90;94267.59;5076927;28;20174;-76
2022/11/22 04:02:17;;;;;;;7.07;4.77;;;;;;;3.92;89.39;94275.00;5076784;28;20636;-74
2022/11/22 04:04:42;;;;;;;8.93;5.27;;;;;;;3.93;88.80;94276.63;5076836;28;20170;-76
2022/11/22 04:07:08;;;;;;;11.63;6.67;;;;;;;3.90;88.80;94279.59;5076942;28;20174;-76
2022/11/22 04:09:33;;;;;;;15.97;8.33;;;;;;;3.91;89.08;94275.19;5094880;28;20181;-74
2022/11/22 04:11:58;;;;;;;11.33;8.33;;;;;;;3.90;88.83;94282.19;5096719;28;20161;-74
2022/11/22 04:17:11;;;;;;;23.53;14.03;;;;;;;3.76;89.13;94286.47;5096824;28;20269;-75
2022/11/22 04:19:37;;;;;;;23.37;14.87;;;;;;;3.64;89.41;94268.88;5079169;28;20177;-75
2022/11/22 04:22:02;;;;;;;22.43;14.20;;;;;;;3.73;89.63;94280.81;5066093;28;20182;-75
2022/11/22 04:27:12;;;;;;;27.83;16.00;;;;;;;3.74;89.14;94287.63;5075890;28;21053;-73
2022/11/22 04:29:37;;;;;;;28.13;15.70;;;;;;;3.72;89.24;94300.00;5076207;28;20175;-73
2022/11/22 04:34:46;;;;;;;23.50;14.73;;;;;;;3.61;89.67;94295.28;5076050;28;20217;-75
2022/11/22 04:37:12;;;;;;;25.30;16.33;;;;;;;3.64;90.05;94303.53;5073968;28;20603;-75
2022/11/22 04:39:37;;;;;;;30.93;17.03;;;;;;;3.62;89.83;94304.72;5070913;28;20218;-74
2022/11/22 04:44:46;;;;;;;26.47;15.80;;;;;;;3.38;89.48;94264.19;5074469;28;20184;-75
2022/11/22 04:50:00;;;;;;;21.10;12.67;;;;;;;3.56;89.64;94318.44;5082977;28;20251;-74
2022/11/22 04:55:09;;;;;;;17.57;11.60;;;;;;;3.53;89.84;94326.63;5074297;28;20267;-75
2022/11/22 04:57:34;;;;;;;17.77;11.70;;;;;;;3.50;89.91;94332.16;5075651;28;20178;-75
2022/11/22 05:00:00;;;;;;;17.03;10.50;;;;;;;3.12;89.80;94282.03;5073073;28;20193;-75
2022/11/22 05:02:25;;;;;;;15.17;9.13;;;;;;;3.02;90.04;94277.13;5092483;28;20239;-74
2022/11/22 05:04:51;;;;;;;15.20;9.43;;;;;;;3.39;90.60;94342.03;5093015;28;20248;-74
2022/11/22 05:07:16;;;;;;;10.20;7.07;;;;;;;3.42;90.39;94346.06;5076259;28;20584;-74
2022/11/22 05:09:41;;;;;;;12.13;8.43;;;;;;;3.37;90.41;94345.81;5072667;28;20180;-74
2022/11/22 05:12:07;;;;;;;13.30;8.93;;;;;;;3.35;90.24;94351.19;5072549;28;20655;-74
2022/11/22 05:14:33;;;;;;;16.23;9.87;;;;;;;3.34;90.64;94343.56;5072506;28;20198;-74
2022/11/22 05:16:58;;;;;;;14.47;9.00;;;;;;;3.41;90.78;94340.06;5072658;28;20674;-74
2022/11/22 05:19:23;;;;;;;21.03;12.40;;;;;;;3.46;90.71;94339.50;5090140;28;20205;-74
2022/11/22 05:21:50;;;;;;;26.93;17.37;;;;;;;3.45;91.15;94343.13;5092695;28;20537;-75
2022/11/22 05:24:15;;;;;;;28.23;17.67;;;;;;;3.46;91.10;94326.50;5081740;28;20190;-74
2022/11/22 05:26:41;;;;;;;39.83;20.63;;;;;;;3.52;90.77;94338.00;5072615;28;20178;-74
2022/11/22 05:29:10;;;;;;;33.40;20.77;;;;;;;3.40;90.93;94322.03;5072021;28;20182;-75
2022/11/22 05:31:37;;;;;;;30.90;20.17;;;;;;;3.52;90.63;94335.41;5072523;28;20941;-75
2022/11/22 05:34:04;;;;;;;41.37;24.50;;;;;;;3.52;90.66;94332.81;5072607;28;20284;-75
2022/11/22 05:36:31;;;;;;;34.53;21.13;;;;;;;3.53;91.08;94331.81;5071785;28;20181;-75
2022/11/22 05:38:57;;;;;;;35.90;21.33;;;;;;;3.54;90.58;94336.03;5071125;28;21032;-75
2022/11/22 05:41:23;;;;;;;44.33;26.93;;;;;;;3.48;90.46;94336.72;5071086;28;20228;-75
2022/11/22 05:43:48;;;;;;;70.93;31.10;;;;;;;3.49;90.68;94346.16;5071085;28;20606;-75
2022/11/22 05:46:16;;;;;;;90.47;48.53;;;;;;;3.45;90.92;94343.13;5071126;28;20171;-75
2022/11/22 05:48:44;;;;;;;93.43;48.67;;;;;;;3.50;91.58;94339.97;5071273;28;20170;-75
2022/11/22 05:51:12;;;;;;;101.27;51.73;;;;;;;3.47;91.58;94319.50;5071915;28;20163;-75
2022/11/22 05:53:38;;;;;;;84.13;45.40;;;;;;;3.65;91.12;94346.78;5071873;28;20686;-75
2022/11/22 05:56:06;;;;;;;76.37;42.10;;;;;;;3.69;91.18;94342.03;5071726;28;20566;-75
2022/11/22 05:58:32;;;;;;;88.93;43.67;;;;;;;3.69;91.21;94344.63;5077645;28;20706;-74
2022/11/22 06:01:12;;;;;;;86.80;44.87;;;;;;;3.74;91.24;94334.47;5073685;28;20268;-75
2022/11/22 06:03:37;;;;;;;90.33;47.13;;;;;;;3.74;90.59;94332.69;5091978;28;20174;-75
2022/11/22 06:06:05;;;;;;;86.50;47.40;;;;;;;3.70;90.62;94328.84;5092185;28;20575;-75
2022/11/22 06:08:33;;;;;;;109.33;58.70;;;;;;;3.85;90.87;94346.22;5091887;28;20169;-75
2022/11/22 06:11:28;;;;;;;100.93;57.87;;;;;;;3.93;90.49;94339.09;5092080;28;20762;-75
2022/11/22 06:13:58;;;;;;;135.13;73.97;;;;;;;4.24;90.81;94348.47;5067244;28;20239;-75
2022/11/22 06:16:25;;;;;;;144.17;81.73;;;;;;;4.70;90.12;94351.50;5071121;28;20174;-75
2022/11/22 06:18:52;;;;;;;113.10;63.47;;;;;;;5.29;88.79;94359.78;5066499;28;20175;-75
2022/11/22 06:21:22;;;;;;;80.00;45.87;;;;;;;6.06;86.92;94364.84;5062266;28;20168;-75
2022/11/22 06:23:48;;;;;;;23.57;13.07;;;;;;;6.59;83.61;94355.34;5071351;28;20181;-75
2022/11/22 06:26:17;;;;;;;25.70;14.67;;;;;;;7.10;82.73;94362.66;5071710;28;20167;-76
2022/11/22 06:28:43;;;;;;;24.57;14.03;;;;;;;7.83;78.69;94351.06;5056906;28;20201;-75
2022/11/22 06:31:14;;;;;;;81.70;43.13;;;;;;;8.87;76.94;94353.41;5070896;28;20162;-75
2022/11/22 06:33:41;;;;;;;58.17;34.63;;;;;;;9.68;74.18;94363.06;5071193;28;20679;-75
2022/11/22 06:36:12;;;;;;;53.73;32.53;;;;;;;10.04;71.75;94357.78;5070987;28;20201;-75
2022/11/22 06:38:38;;;;;;;30.60;18.13;;;;;;;10.12;69.29;94375.91;5070935;28;20337;-75
2022/11/22 06:41:12;;;;;;;26.27;17.87;;;;;;;10.23;68.16;94377.03;5070843;28;20174;-75
2022/11/22 06:43:39;;;;;;;25.20;16.73;;;;;;;10.45;67.89;94351.88;5070310;28;20178;-75
2022/11/22 06:46:05;;;;;;;23.30;14.67;;;;;;;11.52;65.36;94365.09;5070875;28;20213;-74
2022/11/22 06:48:34;;;;;;;20.50;14.57;;;;;;;13.01;61.81;94389.84;5070952;28;20185;-74
2022/11/22 06:51:03;;;;;;;17.57;11.93;;;;;;;13.86;57.94;94382.53;5071102;28;20175;-75
2022/11/22 06:53:33;;;;;;;18.97;12.77;;;;;;;14.36;56.16;94368.38;5071020;28;20658;-75
2022/11/22 06:56:04;;;;;;;18.77;10.83;;;;;;;15.18;54.21;94386.03;5070662;28;20202;-75
2022/11/22 06:58:29;;;;;;;17.10;10.60;;;;;;;15.90;51.72;94364.38;5070643;28;20201;-75
2022/11/22 07:01:00;;;;;;;9.93;7.13;;;;;;;16.53;50.13;94369.47;5070864;28;20213;-75
2022/11/22 07:03:25;;;;;;;9.87;6.80;;;;;;;17.04;48.16;94369.69;5070824;28;20178;-75
2022/11/22 07:05:51;;;;;;;13.13;7.97;;;;;;;17.73;46.97;94371.91;5063027;28;20740;-75
2022/11/22 07:08:16;;;;;;;12.68;8.07;;;;;;;18.81;43.75;94377.56;5072330;28;20170;-75
2022/11/22 07:10:41;;;;;;;13.68;8.07;;;;;;;19.72;41.98;94370.13;5077119;28;20178;-75
2022/11/22 07:13:07;;;;;;;12.57;7.78;;;;;;;20.60;40.38;94367.13;5070241;28;20205;-75
2022/11/22 07:15:32;;;;;;;9.35;6.70;;;;;;;20.67;39.35;94364.91;5070614;28;20206;-74
2022/11/22 07:17:58;;;;;;;8.73;6.70;;;;;;;19.81;39.94;94363.84;5070420;28;20182;-76
2022/11/22 07:20:23;;;;;;;10.57;7.07;;;;;;;20.00;40.20;94369.31;5070410;28;20248;-74
2022/11/22 07:22:48;;;;;;;11.77;6.90;;;;;;;21.23;38.67;94362.34;5070416;28;20217;-74
2022/11/22 07:25:14;;;;;;;11.35;7.05;;;;;;;21.25;37.16;94365.53;5070475;28;20175;-75
2022/11/22 07:27:39;;;;;;;13.25;8.20;;;;;;;22.04;36.19;94369.16;5070551;28;20206;-75
2022/11/22 07:30:05;;;;;;;14.68;7.60;;;;;;;21.98;35.24;94362.28;5070531;28;20185;-75
2022/11/22 07:32:31;;;;;;;12.63;8.75;;;;;;;22.50;34.62;94347.66;5071104;28;20177;-76
2022/11/22 07:34:56;;;;;;;16.20;7.85;;;;;;;22.37;33.06;94339.63;5061784;28;20198;-77
2022/11/22 07:37:21;;;;;;;12.40;7.85;;;;;;;22.84;33.03;94328.50;5082521;28;20194;-76
2022/11/22 07:39:47;;;;;;;11.20;6.38;;;;;;;22.33;32.96;94331.38;5071044;28;20217;-76
2022/11/22 07:42:12;;;;;;;7.53;4.68;;;;;;;21.63;33.75;94342.19;5076452;28;20185;-75
2022/11/22 07:44:38;;;;;;;6.90;4.90;;;;;;;20.65;34.90;94325.09;5062032;28;20198;-75
2022/11/22 07:47:03;;;;;;;9.02;5.15;;;;;;;18.49;38.20;94323.81;5070919;28;20260;-75
2022/11/22 07:49:28;;;;;;;7.50;5.22;;;;;;;15.92;43.20;94328.53;5086019;28;20185;-75
2022/11/22 07:51:54;;;;;;;7.05;4.93;;;;;;;13.90;48.79;94328.09;5074160;28;20178;-75
2022/11/22 07:54:19;;;;;;;6.83;4.33;;;;;;;12.10;54.84;94346.63;5070568;28;20162;-75
2022/11/22 07:56:45;;;;;;;6.60;5.00;;;;;;;11.08;58.53;94345.31;5070044;28;20508;-75
2022/11/22 07:59:10;;;;;;;8.33;5.10;;;;;;;10.76;61.30;94342.97;5068594;28;20682;-75
2022/11/22 08:01:35;;;;;;;7.27;5.17;;;;;;;10.52;63.81;94344.72;5074892;28;20166;-75
2022/11/22 08:04:01;;;;;;;9.63;6.27;;;;;;;10.37;65.92;94341.69;5087835;28;20539;-75
2022/11/22 08:06:26;;;;;;;7.17;4.53;;;;;;;10.34;65.03;94330.78;5088323;28;20554;-75
2022/11/22 08:08:52;;;;;;;9.10;6.03;;;;;;;10.29;64.86;94322.75;5069995;28;20209;-75
2022/11/22 08:11:17;;;;;;;9.23;5.70;;;;;;;10.28;64.22;94334.31;5067823;28;20197;-75
2022/11/22 08:13:43;;;;;;;7.23;4.70;;;;;;;9.87;64.37;94287.63;5067752;28;20193;-75
2022/11/22 08:16:12;;;;;;;7.67;5.53;;;;;;;9.84;66.01;94315.97;5069702;28;20195;-76
2022/11/22 08:18:38;;;;;;;6.27;4.77;;;;;;;9.66;65.08;94323.84;5069541;28;20534;-76
2022/11/22 08:21:07;;;;;;;6.27;4.97;;;;;;;9.14;67.34;94319.91;5069416;28;20264;-76
2022/11/22 08:23:33;;;;;;;6.67;5.20;;;;;;;9.08;69.21;94312.88;5069490;28;20532;-75
2022/11/22 08:25:59;;;;;;;9.80;4.93;;;;;;;9.07;68.38;94306.81;5071467;28;20181;-76
2022/11/22 08:28:25;;;;;;;9.87;5.00;;;;;;;8.84;67.26;94316.28;5073085;28;20182;-75
2022/11/22 08:30:50;;;;;;;7.03;4.87;;;;;;;8.70;70.59;94311.16;5073102;28;20171;-75
2022/11/22 08:33:15;;;;;;;7.83;5.10;;;;;;;8.59;70.34;94285.59;5073250;28;20178;-75
2022/11/22 08:35:42;;;;;;;13.13;4.90;;;;;;;8.67;69.16;94308.94;5073026;28;20727;-75
2022/11/22 08:38:07;;;;;;;9.00;5.47;;;;;;;8.75;69.49;94299.19;5073134;28;20197;-75
2022/11/22 08:40:33;;;;;;;10.40;5.27;;;;;;;8.50;69.22;94294.72;5072628;28;20237;-75
2022/11/22 08:42:58;;;;;;;7.83;4.90;;;;;;;8.43;70.94;94277.41;5072753;28;20186;-75
2022/11/22 08:45:24;;;;;;;16.20;6.03;;;;;;;8.47;70.96;94276.00;5072734;28;20260;-75
2022/11/22 08:47:51;;;;;;;13.90;7.90;;;;;;;8.50;71.54;94268.50;5072776;28;20648;-75
2022/11/22 08:50:17;;;;;;;15.27;8.53;;;;;;;8.48;72.67;94278.38;5072585;28;20171;-75
2022/11/22 08:52:43;;;;;;;17.13;9.33;;;;;;;8.30;74.38;94271.19;5072758;28;20178;-75
2022/11/22 08:55:08;;;;;;;14.80;8.17;;;;;;;8.14;74.58;94265.66;5072357;28;20206;-74
2022/11/22 08:57:34;;;;;;;12.97;8.73;;;;;;;8.05;75.48;94272.97;5072507;28;20651;-75
2022/11/22 08:59:59;;;;;;;14.10;8.53;;;;;;;7.92;76.38;94249.44;5072174;28;20186;-75
2022/11/22 09:02:24;;;;;;;14.37;9.30;;;;;;;7.99;77.10;94275.63;5072368;28;20178;-76
2022/11/22 09:04:50;;;;;;;14.23;8.00;;;;;;;7.99;76.69;94273.00;5072291;28;20176;-75
2022/11/22 09:07:15;;;;;;;13.43;8.73;;;;;;;7.94;77.19;94274.44;5072123;28;20175;-75
2022/11/22 09:09:41;;;;;;;14.80;8.10;;;;;;;7.84;77.21;94252.31;5072348;28;20197;-75
2022/11/22 09:12:06;;;;;;;14.67;8.17;;;;;;;7.98;77.10;94261.72;5072265;28;20182;-75
2022/11/22 09:14:32;;;;;;;13.53;8.30;;;;;;;8.05;77.38;94259.03;5078765;28;20201;-75
2022/11/22 09:16:57;;;;;;;13.70;8.80;;;;;;;7.97;77.43;94250.41;5078422;28;20249;-75
2022/11/22 09:19:22;;;;;;;15.07;8.40;;;;;;;8.20;77.85;94264.84;5072085;28;20181;-75
2022/11/22 09:21:48;;;;;;;14.37;8.63;;;;;;;8.11;77.19;94245.13;5071991;28;20221;-75
2022/11/22 09:24:14;;;;;;;13.07;8.40;;;;;;;8.36;76.32;94268.78;5072089;28;20320;-75
2022/11/22 09:26:39;;;;;;;14.23;8.73;;;;;;;8.42;75.58;94271.38;5071830;28;20185;-75
2022/11/22 09:29:04;;;;;;;17.60;9.13;;;;;;;8.42;75.48;94267.94;5071891;28;20174;-75
2022/11/22 09:31:30;;;;;;;16.17;8.30;;;;;;;8.43;76.03;94270.34;5071768;28;20178;-75
2022/11/22 09:33:56;;;;;;;16.20;9.03;;;;;;;8.47;76.10;94261.06;5071944;28;20562;-75
2022/11/22 09:36:26;;;;;;;16.80;8.57;;;;;;;8.50;74.90;94252.75;5071024;28;20206;-75
2022/11/22 09:38:52;;;;;;;13.03;7.70;;;;;;;8.51;75.02;94257.00;5073260;28;20221;-75
2022/11/22 09:41:57;;;;;;;12.70;7.67;;;;;;;8.65;74.83;94245.38;5092978;28;20197;-75
2022/11/22 09:44:37;;;;;;;15.63;8.07;;;;;;;8.64;73.67;94243.00;5091615;28;20218;-75
2022/11/22 09:47:08;;;;;;;9.77;7.03;;;;;;;8.61;74.24;94238.97;5090075;28;20177;-75
2022/11/22 09:49:42;;;;;;;11.73;7.50;;;;;;;8.54;74.45;94238.22;5089140;28;20662;-75
2022/11/22 09:52:31;;;;;;;13.67;7.03;;;;;;;8.48;75.09;94233.00;5071349;28;20173;-75
2022/11/22 09:55:02;;;;;;;10.33;6.70;;;;;;;8.50;74.35;94229.16;5066825;28;20199;-75
2022/11/22 09:57:42;;;;;;;11.23;7.03;;;;;;;8.17;73.67;94176.13;5068652;28;20259;-75
2022/11/22 10:00:20;;;;;;;14.50;6.87;;;;;;;8.21;73.95;94209.56;5050470;28;20276;-74
2022/11/22 10:03:24;;;;;;;8.03;6.30;;;;;;;8.28;73.57;94233.13;5070236;28;20201;-75
2022/11/22 10:05:52;;;;;;;14.83;7.27;;;;;;;8.27;73.67;94226.28;5036225;28;20197;-75
2022/11/22 10:08:17;;;;;;;9.80;5.97;;;;;;;8.17;74.77;94229.34;5083281;28;20266;-76
2022/11/22 10:10:43;;;;;;;11.10;6.23;;;;;;;8.29;75.42;94232.91;5086659;28;20260;-76
2022/11/22 10:13:18;;;;;;;10.90;6.63;;;;;;;8.51;74.96;94222.88;5072009;28;20257;-75
2022/11/22 10:16:06;;;;;;;11.03;5.60;;;;;;;8.69;73.25;94216.91;5080437;28;20621;-75
2022/11/22 10:18:40;;;;;;;14.03;7.50;;;;;;;8.66;72.76;94209.44;5077017;28;20178;-75
2022/11/22 10:21:14;;;;;;;11.67;7.13;;;;;;;8.30;74.84;94197.78;5054177;28;20189;-75
2022/11/22 10:23:41;;;;;;;12.00;7.00;;;;;;;8.49;74.47;94196.06;5076235;28;20185;-77
2022/11/22 10:26:32;;;;;;;10.83;7.13;;;;;;;8.80;72.43;94197.84;5092165;28;20269;-75
2022/11/22 10:28:58;;;;;;;12.40;7.40;;;;;;;8.88;72.14;94181.00;5077207;28;20237;-76
2022/11/22 10:31:32;;;;;;;11.00;7.43;;;;;;;8.88;72.71;94157.38;5090442;28;20281;-76
2022/11/22 10:34:10;;;;;;;11.47;7.43;;;;;;;9.01;71.85;94159.88;5091580;28;20541;-76
2022/11/22 10:36:49;;;;;;;10.40;6.80;;;;;;;8.94;71.65;94167.00;5090367;28;20181;-76
2022/11/22 10:39:22;;;;;;;12.30;6.97;;;;;;;8.80;72.42;94147.97;5089747;28;20976;-76
2022/11/22 10:42:12;;;;;;;11.60;7.73;;;;;;;9.02;71.62;94170.16;5087475;28;20193;-76
2022/11/22 10:44:53;;;;;;;10.23;6.70;;;;;;;9.07;70.36;94165.06;5070568;28;20177;-76
2022/11/22 10:47:32;;;;;;;8.83;5.90;;;;;;;8.92;69.80;94145.41;5085384;28;20215;-76
2022/11/22 10:50:14;;;;;;;9.27;5.57;;;;;;;9.00;69.86;94166.13;5090507;28;20260;-76
2022/11/22 10:52:46;;;;;;;8.13;5.40;;;;;;;8.88;70.47;94158.19;5072449;28;20186;-77
2022/11/22 10:55:45;;;;;;;8.70;6.10;;;;;;;8.87;71.62;94150.53;5077276;28;20201;-77
2022/11/22 10:58:22;;;;;;;14.87;6.03;;;;;;;8.73;73.22;94146.44;5070422;28;20227;-76
2022/11/22 11:00:58;;;;;;;9.13;6.50;;;;;;;8.75;72.02;94153.06;5070490;28;20555;-76
2022/11/22 11:03:31;;;;;;;10.73;6.37;;;;;;;8.80;72.84;94160.28;5070676;28;20177;-76
2022/11/22 11:06:25;;;;;;;11.17;6.93;;;;;;;8.84;71.85;94150.97;5070495;28;20632;-76
2022/11/22 11:09:00;;;;;;;9.53;5.67;;;;;;;8.90;72.00;94144.84;5070321;28;20234;-76
2022/11/22 11:11:26;;;;;;;10.43;4.90;;;;;;;8.63;71.92;94145.13;5070523;28;20555;-76
2022/11/22 11:13:55;;;;;;;8.80;5.23;;;;;;;8.54;72.52;94138.53;5070242;28;20173;-76
2022/11/22 11:16:24;;;;;;;7.37;5.50;;;;;;;8.59;71.82;94133.44;5070455;28;20213;-78
2022/11/22 11:19:03;;;;;;;9.07;5.10;;;;;;;8.63;72.41;94139.88;5082690;28;20184;-76
2022/11/22 11:21:28;;;;;;;8.53;5.30;;;;;;;8.43;73.42;94149.72;5090205;28;20243;-76
2022/11/22 11:23:54;;;;;;;10.20;5.83;;;;;;;8.13;73.43;94112.03;5087055;28;20659;-76
2022/11/22 11:26:39;;;;;;;8.47;5.17;;;;;;;8.11;73.26;94114.06;5069695;28;20253;-76
2022/11/22 11:29:17;;;;;;;9.53;5.47;;;;;;;8.40;73.56;94138.84;5069210;28;20198;-77
2022/11/22 11:31:47;;;;;;;8.37;4.90;;;;;;;8.34;73.59;94137.91;5069584;28;20186;-76
2022/11/22 11:34:24;;;;;;;7.93;5.17;;;;;;;8.44;72.81;94113.81;5069862;28;20764;-76
2022/11/22 11:36:52;;;;;;;8.43;5.80;;;;;;;8.38;73.85;94107.63;5069611;28;20177;-77
2022/11/22 11:39:28;;;;;;;8.50;5.30;;;;;;;8.51;73.02;94101.44;5069491;28;20359;-76
2022/11/22 11:41:54;;;;;;;9.23;5.63;;;;;;;8.57;72.56;94111.84;5069845;28;20182;-76
2022/11/22 11:44:30;;;;;;;8.33;5.03;;;;;;;8.65;72.93;94111.56;5069689;28;20178;-76
2022/11/22 11:46:57;;;;;;;7.80;5.20;;;;;;;8.78;72.20;94104.59;5069600;28;20166;-76
2022/11/22 11:49:27;;;;;;;9.80;5.30;;;;;;;8.64;72.24;94078.53;5069640;28;20186;-76
2022/11/22 11:51:59;;;;;;;8.63;5.50;;;;;;;8.84;73.16;94088.78;5069795;28;20315;-76
2022/11/22 11:54:33;;;;;;;9.50;5.00;;;;;;;8.88;73.30;94095.22;5069740;28;20249;-76
2022/11/22 11:57:03;;;;;;;8.13;5.13;;;;;;;8.88;72.69;94086.53;5069877;28;20189;-76